Yengema Airport

Jump to: basic info | weather | comments

Related pages: nearby airports | nearby navaids | notams | map

Basic information (top)

Codes: WYE GFYE
Location: lon 8.610470, lat -11.045400, elev 1,300 ft / 396 m msl
Status: medium_airport
Scheduled airline service: yes
Links: Wikipedia Mobile

Weather (top)

Current conditions for Lungi International Airport 128nm (236km) W (rec'd 2014/09/16 00:00Z):

GFLL 160000Z 28007KT 9999 BKN011 FEW027CB 25/24 Q1014 RMK CB/NE

Airport forecast for Lungi International Airport 128nm (236km) W (rec'd 2014/09/15 18:00Z):

TAF GFLL 151600Z 1518/1600 26010KT 9000 BKN010 FEW027CB PROB30 
      TEMPO 1522/1602 24008KT 8000 TSRA BKN009 
      BECMG 1605/1607 09006KT 4000 BR BKN012 FEW026CB

Latest comments (top)

No comments yet for Yengema Airport

More... (top)

See also NOTAMs and nearby airports and navaids, or visit the Yengema Airport page at the main OurAirports website..